sensor_id;sensor_type;location;lat;lon;timestamp;pressure;altitude;pressure_sealevel;temperature;humidity
1480;BME280;732;51.698;4.886;2023-04-25T00:02:27;101295.25;;;2.84;74.43
1480;BME280;732;51.698;4.886;2023-04-25T00:04:55;101289.81;;;2.85;74.28
1480;BME280;732;51.698;4.886;2023-04-25T00:07:26;101299.94;;;2.91;73.82
1480;BME280;732;51.698;4.886;2023-04-25T00:09:54;101301.03;;;2.77;74.03
1480;BME280;732;51.698;4.886;2023-04-25T00:12:24;101295.84;;;2.87;74.34
1480;BME280;732;51.698;4.886;2023-04-25T00:14:52;101295.59;;;2.68;nan
1480;BME280;732;51.698;4.886;2023-04-25T00:17:20;101277.44;;;2.63;74.79
1480;BME280;732;51.698;4.886;2023-04-25T00:19:48;101284.53;;;2.74;74.70
1480;BME280;732;51.698;4.886;2023-04-25T00:22:17;101297.41;;;2.78;74.48
1480;BME280;732;51.698;4.886;2023-04-25T00:24:45;101294.28;;;2.85;74.14
1480;BME280;732;51.698;4.886;2023-04-25T00:27:14;101279.94;;;2.87;73.88
1480;BME280;732;51.698;4.886;2023-04-25T00:29:44;101275.50;;;2.76;73.87
1480;BME280;732;51.698;4.886;2023-04-25T00:32:12;101309.56;;;3.04;73.71
1480;BME280;732;51.698;4.886;2023-04-25T00:34:40;101318.00;;;3.09;73.72
1480;BME280;732;51.698;4.886;2023-04-25T00:37:10;101310.78;;;3.11;73.86
1480;BME280;732;51.698;4.886;2023-04-25T00:39:39;101319.34;;;3.15;73.73
1480;BME280;732;51.698;4.886;2023-04-25T00:42:09;101314.28;;;3.00;73.88
1480;BME280;732;51.698;4.886;2023-04-25T00:44:38;101315.25;;;2.99;73.80
1480;BME280;732;51.698;4.886;2023-04-25T00:47:12;101321.53;;;2.87;73.57
1480;BME280;732;51.698;4.886;2023-04-25T00:49:40;101295.03;;;2.87;73.84
1480;BME280;732;51.698;4.886;2023-04-25T00:52:09;101315.25;;;3.10;73.48
1480;BME280;732;51.698;4.886;2023-04-25T00:54:37;101322.59;;;3.07;73.80
1480;BME280;732;51.698;4.886;2023-04-25T00:57:06;101317.44;;;3.05;73.69
1480;BME280;732;51.698;4.886;2023-04-25T00:59:34;101320.66;;;3.20;73.58
1480;BME280;732;51.698;4.886;2023-04-25T01:02:04;101275.25;;;2.91;73.31
1480;BME280;732;51.698;4.886;2023-04-25T01:04:35;101308.72;;;3.26;72.81
1480;BME280;732;51.698;4.886;2023-04-25T01:07:04;101301.88;;;3.12;72.88
1480;BME280;732;51.698;4.886;2023-04-25T01:09:32;101321.75;;;2.95;73.34
1480;BME280;732;51.698;4.886;2023-04-25T01:12:01;101288.03;;;2.63;73.96
1480;BME280;732;51.698;4.886;2023-04-25T01:14:29;101291.38;;;2.65;73.82
1480;BME280;732;51.698;4.886;2023-04-25T01:16:58;101321.03;;;3.04;73.08
1480;BME280;732;51.698;4.886;2023-04-25T01:19:27;101320.28;;;3.13;72.58
1480;BME280;732;51.698;4.886;2023-04-25T01:21:56;101317.06;;;2.87;73.05
1480;BME280;732;51.698;4.886;2023-04-25T01:24:25;101323.91;;;2.90;73.08
1480;BME280;732;51.698;4.886;2023-04-25T01:26:55;101300.44;;;2.74;73.36
1480;BME280;732;51.698;4.886;2023-04-25T01:29:24;101331.75;;;2.91;73.43
1480;BME280;732;51.698;4.886;2023-04-25T01:31:53;101331.41;;;2.96;72.94
1480;BME280;732;51.698;4.886;2023-04-25T01:34:21;101306.47;;;2.76;72.73
1480;BME280;732;51.698;4.886;2023-04-25T01:36:50;101312.50;;;2.89;72.20
1480;BME280;732;51.698;4.886;2023-04-25T01:39:20;101324.19;;;2.75;73.04
1480;BME280;732;51.698;4.886;2023-04-25T01:41:49;101305.50;;;2.54;73.38
1480;BME280;732;51.698;4.886;2023-04-25T01:44:17;101336.09;;;2.70;73.21
1480;BME280;732;51.698;4.886;2023-04-25T01:46:45;101335.47;;;2.66;73.09
1480;BME280;732;51.698;4.886;2023-04-25T01:49:14;101329.06;;;2.57;73.45
1480;BME280;732;51.698;4.886;2023-04-25T01:51:44;101347.00;;;2.54;73.40
1480;BME280;732;51.698;4.886;2023-04-25T01:54:13;101346.75;;;2.45;74.10
1480;BME280;732;51.698;4.886;2023-04-25T01:56:43;101337.91;;;2.22;74.61
1480;BME280;732;51.698;4.886;2023-04-25T01:59:11;101352.09;;;2.21;74.82
1480;BME280;732;51.698;4.886;2023-04-25T02:01:58;101346.44;;;2.14;75.06
1480;BME280;732;51.698;4.886;2023-04-25T02:04:32;101325.81;;;2.07;74.53
1480;BME280;732;51.698;4.886;2023-04-25T02:07:01;101349.81;;;2.28;74.36
1480;BME280;732;51.698;4.886;2023-04-25T02:09:56;101355.25;;;2.26;74.53
1480;BME280;732;51.698;4.886;2023-04-25T02:12:27;101321.41;;;2.19;74.08
1480;BME280;732;51.698;4.886;2023-04-25T02:15:18;101355.22;;;2.51;74.08
1480;BME280;732;51.698;4.886;2023-04-25T02:17:57;101337.28;;;2.66;73.62
1480;BME280;732;51.698;4.886;2023-04-25T02:20:29;101354.28;;;2.97;72.96
1480;BME280;732;51.698;4.886;2023-04-25T02:22:58;101349.31;;;3.15;72.67
1480;BME280;732;51.698;4.886;2023-04-25T02:25:27;101336.34;;;3.12;72.15
1480;BME280;732;51.698;4.886;2023-04-25T02:27:57;101351.47;;;3.33;72.06
1480;BME280;732;51.698;4.886;2023-04-25T02:30:25;101351.72;;;3.41;71.60
1480;BME280;732;51.698;4.886;2023-04-25T02:32:53;101335.56;;;3.33;71.38
1480;BME280;732;51.698;4.886;2023-04-25T02:35:22;101354.72;;;3.48;71.37
1480;BME280;732;51.698;4.886;2023-04-25T02:37:53;101353.25;;;3.55;70.89
1480;BME280;732;51.698;4.886;2023-04-25T02:40:21;101354.94;;;3.56;70.69
1480;BME280;732;51.698;4.886;2023-04-25T02:42:49;101360.22;;;3.67;70.39
1480;BME280;732;51.698;4.886;2023-04-25T02:45:21;101340.97;;;3.54;70.13
1480;BME280;732;51.698;4.886;2023-04-25T02:47:49;101357.09;;;3.62;70.37
1480;BME280;732;51.698;4.886;2023-04-25T02:50:19;101337.25;;;3.45;70.77
1480;BME280;732;51.698;4.886;2023-04-25T02:52:48;101358.06;;;3.61;70.86
1480;BME280;732;51.698;4.886;2023-04-25T02:55:21;101361.19;;;3.66;70.61
1480;BME280;732;51.698;4.886;2023-04-25T02:57:53;101361.69;;;3.60;70.47
1480;BME280;732;51.698;4.886;2023-04-25T03:00:44;101349.88;;;3.64;70.59
1480;BME280;732;51.698;4.886;2023-04-25T03:03:13;101353.72;;;3.71;70.56
1480;BME280;732;51.698;4.886;2023-04-25T03:05:44;101358.56;;;3.55;70.56
1480;BME280;732;51.698;4.886;2023-04-25T03:08:14;101364.97;;;3.52;71.06
1480;BME280;732;51.698;4.886;2023-04-25T03:10:43;101356.66;;;3.45;71.16
1480;BME280;732;51.698;4.886;2023-04-25T03:13:13;101339.06;;;3.44;71.08
1480;BME280;732;51.698;4.886;2023-04-25T03:15:44;101315.84;;;3.25;71.02
1480;BME280;732;51.698;4.886;2023-04-25T03:18:12;101316.63;;;3.37;70.93
1480;BME280;732;51.698;4.886;2023-04-25T03:20:40;101356.53;;;3.47;71.13
1480;BME280;732;51.698;4.886;2023-04-25T03:23:09;101365.25;;;3.38;71.06
1480;BME280;732;51.698;4.886;2023-04-25T03:25:41;101370.41;;;3.39;70.68
1480;BME280;732;51.698;4.886;2023-04-25T03:28:10;101367.50;;;3.54;70.58
1480;BME280;732;51.698;4.886;2023-04-25T03:30:38;101325.59;;;3.25;70.17
1480;BME280;732;51.698;4.886;2023-04-25T03:33:07;101342.22;;;3.38;70.13
1480;BME280;732;51.698;4.886;2023-04-25T03:35:36;101332.91;;;3.33;69.92
1480;BME280;732;51.698;4.886;2023-04-25T03:38:04;101352.47;;;3.09;70.37
1480;BME280;732;51.698;4.886;2023-04-25T03:40:38;101371.88;;;3.09;70.90
1480;BME280;732;51.698;4.886;2023-04-25T03:43:26;101370.19;;;2.97;70.87
1480;BME280;732;51.698;4.886;2023-04-25T03:46:05;101373.44;;;2.89;71.64
1480;BME280;732;51.698;4.886;2023-04-25T03:48:36;101377.66;;;2.92;71.48
1480;BME280;732;51.698;4.886;2023-04-25T03:51:04;101381.59;;;2.75;71.66
1480;BME280;732;51.698;4.886;2023-04-25T03:53:35;101377.25;;;2.62;71.31
1480;BME280;732;51.698;4.886;2023-04-25T03:56:19;101352.69;;;2.60;71.03
1480;BME280;732;51.698;4.886;2023-04-25T03:58:53;101379.56;;;2.90;70.06
1480;BME280;732;51.698;4.886;2023-04-25T04:01:24;101368.50;;;2.85;69.07
1480;BME280;732;51.698;4.886;2023-04-25T04:03:54;101380.78;;;2.97;67.21
1480;BME280;732;51.698;4.886;2023-04-25T04:06:24;101386.81;;;3.22;66.36
1480;BME280;732;51.698;4.886;2023-04-25T04:09:00;101384.66;;;3.27;66.20
1480;BME280;732;51.698;4.886;2023-04-25T04:11:31;101403.94;;;3.29;65.61
1480;BME280;732;51.698;4.886;2023-04-25T04:13:59;101383.19;;;3.11;65.54
1480;BME280;732;51.698;4.886;2023-04-25T04:16:27;101398.13;;;3.12;65.55
1480;BME280;732;51.698;4.886;2023-04-25T04:18:59;101412.47;;;2.99;65.39
1480;BME280;732;51.698;4.886;2023-04-25T04:21:29;101412.25;;;2.90;64.73
1480;BME280;732;51.698;4.886;2023-04-25T04:24:00;101388.88;;;2.95;64.80
1480;BME280;732;51.698;4.886;2023-04-25T04:26:32;101394.78;;;3.22;65.42
1480;BME280;732;51.698;4.886;2023-04-25T04:29:09;101393.09;;;3.21;64.50
1480;BME280;732;51.698;4.886;2023-04-25T04:31:58;101399.47;;;3.18;64.80
1480;BME280;732;51.698;4.886;2023-04-25T04:34:30;101392.25;;;3.20;64.54
1480;BME280;732;51.698;4.886;2023-04-25T04:36:58;101390.44;;;3.09;64.69
1480;BME280;732;51.698;4.886;2023-04-25T04:39:27;101406.84;;;3.15;64.16
1480;BME280;732;51.698;4.886;2023-04-25T04:42:18;101381.50;;;2.88;64.50
1480;BME280;732;51.698;4.886;2023-04-25T04:44:57;101400.50;;;2.82;64.99
1480;BME280;732;51.698;4.886;2023-04-25T04:47:54;101403.06;;;2.72;66.75
1480;BME280;732;51.698;4.886;2023-04-25T04:50:47;101413.28;;;2.88;66.46
1480;BME280;732;51.698;4.886;2023-04-25T04:53:45;101398.75;;;2.93;66.31
1480;BME280;732;51.698;4.886;2023-04-25T04:56:39;101422.38;;;3.19;65.91
1480;BME280;732;51.698;4.886;2023-04-25T04:59:25;101434.28;;;3.02;66.05
1480;BME280;732;51.698;4.886;2023-04-25T05:02:07;101408.38;;;2.94;66.12
1480;BME280;732;51.698;4.886;2023-04-25T05:05:02;101406.34;;;3.21;66.30
1480;BME280;732;51.698;4.886;2023-04-25T05:07:51;101439.50;;;3.49;65.63
1480;BME280;732;51.698;4.886;2023-04-25T05:10:40;101442.03;;;3.51;65.21
1480;BME280;732;51.698;4.886;2023-04-25T05:13:27;101443.34;;;3.68;65.21
1480;BME280;732;51.698;4.886;2023-04-25T05:15:55;101452.22;;;3.89;64.87
1480;BME280;732;51.698;4.886;2023-04-25T05:18:35;101454.66;;;3.92;64.86
1480;BME280;732;51.698;4.886;2023-04-25T05:21:23;101452.97;;;3.91;64.87
1480;BME280;732;51.698;4.886;2023-04-25T05:24:25;101471.53;;;3.91;64.50
1480;BME280;732;51.698;4.886;2023-04-25T05:27:16;101436.66;;;3.85;65.13
1480;BME280;732;51.698;4.886;2023-04-25T05:30:05;101476.84;;;4.03;65.35
1480;BME280;732;51.698;4.886;2023-04-25T05:32:45;101478.06;;;3.87;65.88
1480;BME280;732;51.698;4.886;2023-04-25T05:35:17;101456.13;;;3.74;65.28
1480;BME280;732;51.698;4.886;2023-04-25T05:37:47;101486.50;;;4.04;65.02
1480;BME280;732;51.698;4.886;2023-04-25T05:40:17;101486.22;;;4.07;65.35
1480;BME280;732;51.698;4.886;2023-04-25T05:43:04;101478.25;;;4.07;64.90
1480;BME280;732;51.698;4.886;2023-04-25T05:45:43;101493.94;;;4.21;65.04
1480;BME280;732;51.698;4.886;2023-04-25T05:48:28;101507.97;;;4.45;64.26
1480;BME280;732;51.698;4.886;2023-04-25T05:51:08;101497.38;;;4.33;64.23
1480;BME280;732;51.698;4.886;2023-04-25T05:53:56;101500.34;;;4.19;64.42
1480;BME280;732;51.698;4.886;2023-04-25T05:56:29;101510.41;;;3.92;64.43
1480;BME280;732;51.698;4.886;2023-04-25T05:58:57;101482.16;;;3.91;65.15
1480;BME280;732;51.698;4.886;2023-04-25T06:01:25;101510.34;;;4.26;64.85
1480;BME280;732;51.698;4.886;2023-04-25T06:03:53;101514.91;;;4.24;65.62
1480;BME280;732;51.698;4.886;2023-04-25T06:06:22;101505.84;;;4.27;65.52
1480;BME280;732;51.698;4.886;2023-04-25T06:08:50;101477.94;;;4.00;66.13
1480;BME280;732;51.698;4.886;2023-04-25T06:11:19;101513.00;;;4.26;66.42
1480;BME280;732;51.698;4.886;2023-04-25T06:13:48;101507.78;;;4.36;65.32
1480;BME280;732;51.698;4.886;2023-04-25T06:16:17;101513.31;;;4.33;63.53
1480;BME280;732;51.698;4.886;2023-04-25T06:18:45;101513.09;;;4.36;64.92
1480;BME280;732;51.698;4.886;2023-04-25T06:21:14;101510.44;;;4.48;64.52
1480;BME280;732;51.698;4.886;2023-04-25T06:23:43;101516.81;;;4.45;64.06
1480;BME280;732;51.698;4.886;2023-04-25T06:26:18;101531.06;;;4.55;63.69
1480;BME280;732;51.698;4.886;2023-04-25T06:28:48;101527.78;;;4.52;63.75
1480;BME280;732;51.698;4.886;2023-04-25T06:31:17;101532.59;;;4.58;64.48
1480;BME280;732;51.698;4.886;2023-04-25T06:33:46;101537.63;;;4.17;63.11
1480;BME280;732;51.698;4.886;2023-04-25T06:36:15;101533.44;;;3.81;64.94
1480;BME280;732;51.698;4.886;2023-04-25T06:38:46;101534.53;;;3.89;64.99
1480;BME280;732;51.698;4.886;2023-04-25T06:41:15;101544.91;;;3.81;64.91
1480;BME280;732;51.698;4.886;2023-04-25T06:43:43;101546.84;;;3.56;65.44
1480;BME280;732;51.698;4.886;2023-04-25T06:46:25;101550.72;;;3.86;65.71
1480;BME280;732;51.698;4.886;2023-04-25T06:48:54;101556.38;;;3.82;64.66
1480;BME280;732;51.698;4.886;2023-04-25T06:51:22;101539.97;;;3.65;64.69
1480;BME280;732;51.698;4.886;2023-04-25T06:53:54;101549.59;;;3.77;64.44
1480;BME280;732;51.698;4.886;2023-04-25T06:56:29;101569.16;;;3.99;64.21
1480;BME280;732;51.698;4.886;2023-04-25T06:59:05;101572.13;;;4.29;64.21
1480;BME280;732;51.698;4.886;2023-04-25T07:01:37;101557.69;;;4.10;64.16
1480;BME280;732;51.698;4.886;2023-04-25T07:04:10;101584.06;;;4.46;64.62
1480;BME280;732;51.698;4.886;2023-04-25T07:06:44;101591.56;;;4.52;64.45
1480;BME280;732;51.698;4.886;2023-04-25T07:09:16;101587.91;;;4.64;62.44
1480;BME280;732;51.698;4.886;2023-04-25T07:11:46;101557.28;;;4.37;63.31
1480;BME280;732;51.698;4.886;2023-04-25T07:14:15;101592.31;;;4.54;61.96
1480;BME280;732;51.698;4.886;2023-04-25T07:16:45;101593.41;;;4.17;61.68
1480;BME280;732;51.698;4.886;2023-04-25T07:19:14;101601.84;;;3.88;63.50
1480;BME280;732;51.698;4.886;2023-04-25T07:21:43;101604.75;;;4.08;62.83
1480;BME280;732;51.698;4.886;2023-04-25T07:24:13;101603.66;;;4.33;62.30
1480;BME280;732;51.698;4.886;2023-04-25T07:26:45;101572.97;;;4.40;60.62
1480;BME280;732;51.698;4.886;2023-04-25T07:29:29;101554.63;;;4.49;61.77
1480;BME280;732;51.698;4.886;2023-04-25T07:32:01;101600.13;;;4.67;61.04
1480;BME280;732;51.698;4.886;2023-04-25T07:34:29;101603.91;;;4.53;60.20
1480;BME280;732;51.698;4.886;2023-04-25T07:36:59;101607.41;;;4.97;59.78
1480;BME280;732;51.698;4.886;2023-04-25T07:39:34;101604.19;;;5.57;59.89
1480;BME280;732;51.698;4.886;2023-04-25T07:42:04;101613.28;;;5.85;57.85
1480;BME280;732;51.698;4.886;2023-04-25T07:44:35;101583.06;;;5.65;56.33
1480;BME280;732;51.698;4.886;2023-04-25T07:47:09;101601.00;;;5.94;57.17
1480;BME280;732;51.698;4.886;2023-04-25T07:49:37;101585.97;;;6.14;56.31
1480;BME280;732;51.698;4.886;2023-04-25T07:52:06;101611.59;;;6.46;55.81
1480;BME280;732;51.698;4.886;2023-04-25T07:54:37;101624.13;;;6.25;55.44
1480;BME280;732;51.698;4.886;2023-04-25T07:57:13;101624.34;;;6.43;54.76
1480;BME280;732;51.698;4.886;2023-04-25T07:59:43;101621.28;;;6.47;54.93
1480;BME280;732;51.698;4.886;2023-04-25T08:02:13;101627.00;;;6.43;53.32
1480;BME280;732;51.698;4.886;2023-04-25T08:04:42;101631.22;;;6.45;53.90
1480;BME280;732;51.698;4.886;2023-04-25T08:07:12;101615.78;;;6.39;54.03
1480;BME280;732;51.698;4.886;2023-04-25T08:09:52;101634.63;;;6.57;54.37
1480;BME280;732;51.698;4.886;2023-04-25T08:12:28;101618.91;;;6.44;53.55
1480;BME280;732;51.698;4.886;2023-04-25T08:14:56;101640.03;;;6.36;53.61
1480;BME280;732;51.698;4.886;2023-04-25T08:17:29;101645.56;;;6.44;54.42
1480;BME280;732;51.698;4.886;2023-04-25T08:20:03;101644.31;;;6.58;54.30
1480;BME280;732;51.698;4.886;2023-04-25T08:22:33;101633.13;;;6.74;53.15
1480;BME280;732;51.698;4.886;2023-04-25T08:25:16;101653.34;;;6.77;52.83
1480;BME280;732;51.698;4.886;2023-04-25T08:27:44;101652.38;;;6.97;53.30
1480;BME280;732;51.698;4.886;2023-04-25T08:30:13;101658.28;;;6.91;51.31
1480;BME280;732;51.698;4.886;2023-04-25T08:32:47;101670.75;;;6.81;52.77
1480;BME280;732;51.698;4.886;2023-04-25T08:35:25;101662.50;;;7.04;53.59
1480;BME280;732;51.698;4.886;2023-04-25T08:37:53;101664.47;;;7.11;49.49
1480;BME280;732;51.698;4.886;2023-04-25T08:40:27;101663.44;;;7.71;50.63
1480;BME280;732;51.698;4.886;2023-04-25T08:43:02;101668.19;;;7.97;48.98
1480;BME280;732;51.698;4.886;2023-04-25T08:45:32;101674.81;;;7.93;49.08
1480;BME280;732;51.698;4.886;2023-04-25T08:48:03;101666.06;;;8.10;49.38
1480;BME280;732;51.698;4.886;2023-04-25T08:50:37;101662.72;;;7.89;49.37
1480;BME280;732;51.698;4.886;2023-04-25T08:53:09;101682.38;;;8.07;48.77
1480;BME280;732;51.698;4.886;2023-04-25T08:55:43;101685.09;;;7.88;48.32
1480;BME280;732;51.698;4.886;2023-04-25T08:58:14;101689.56;;;7.97;49.10
1480;BME280;732;51.698;4.886;2023-04-25T09:00:45;101692.53;;;7.84;49.37
1480;BME280;732;51.698;4.886;2023-04-25T09:03:16;101669.94;;;7.59;49.91
1480;BME280;732;51.698;4.886;2023-04-25T09:05:46;101688.50;;;7.60;49.40
1480;BME280;732;51.698;4.886;2023-04-25T09:08:17;101707.19;;;7.60;48.97
1480;BME280;732;51.698;4.886;2023-04-25T09:10:45;101706.63;;;7.76;50.23
1480;BME280;732;51.698;4.886;2023-04-25T09:13:17;101675.72;;;8.21;47.16
1480;BME280;732;51.698;4.886;2023-04-25T09:16:20;101710.16;;;8.90;46.25
1480;BME280;732;51.698;4.886;2023-04-25T09:19:21;101720.72;;;9.09;45.49
1480;BME280;732;51.698;4.886;2023-04-25T09:22:10;101696.69;;;8.82;46.89
1480;BME280;732;51.698;4.886;2023-04-25T09:24:40;101699.66;;;8.51;46.64
1480;BME280;732;51.698;4.886;2023-04-25T09:27:12;101724.31;;;8.07;47.40
1480;BME280;732;51.698;4.886;2023-04-25T09:29:41;101724.75;;;7.82;47.89
1480;BME280;732;51.698;4.886;2023-04-25T09:32:18;101700.41;;;7.76;48.15
1480;BME280;732;51.698;4.886;2023-04-25T09:34:53;101735.28;;;7.55;47.82
1480;BME280;732;51.698;4.886;2023-04-25T09:37:24;101737.53;;;7.49;46.99
1480;BME280;732;51.698;4.886;2023-04-25T09:40:12;101733.44;;;7.65;46.22
1480;BME280;732;51.698;4.886;2023-04-25T09:42:52;101735.28;;;7.74;45.44
1480;BME280;732;51.698;4.886;2023-04-25T09:45:20;101708.72;;;7.82;46.27
1480;BME280;732;51.698;4.886;2023-04-25T09:47:49;101707.75;;;8.69;45.66
1480;BME280;732;51.698;4.886;2023-04-25T09:50:25;101746.13;;;9.05;43.49
1480;BME280;732;51.698;4.886;2023-04-25T09:53:03;101747.28;;;8.75;43.50
1480;BME280;732;51.698;4.886;2023-04-25T09:55:52;101750.50;;;9.24;42.77
1480;BME280;732;51.698;4.886;2023-04-25T09:58:21;101756.22;;;8.93;41.99
1480;BME280;732;51.698;4.886;2023-04-25T10:00:51;101741.91;;;9.03;43.66
1480;BME280;732;51.698;4.886;2023-04-25T10:03:34;101742.97;;;9.38;43.58
1480;BME280;732;51.698;4.886;2023-04-25T10:06:24;101737.25;;;9.51;42.54
1480;BME280;732;51.698;4.886;2023-04-25T10:08:53;101749.66;;;9.24;42.96
1480;BME280;732;51.698;4.886;2023-04-25T10:11:25;101761.28;;;8.59;44.84
1480;BME280;732;51.698;4.886;2023-04-25T10:13:54;101763.13;;;8.01;45.16
1480;BME280;732;51.698;4.886;2023-04-25T10:16:25;101765.09;;;7.40;45.48
1480;BME280;732;51.698;4.886;2023-04-25T10:18:53;101772.66;;;7.45;45.87
1480;BME280;732;51.698;4.886;2023-04-25T10:21:23;101768.31;;;7.63;46.70
1480;BME280;732;51.698;4.886;2023-04-25T10:23:54;101750.31;;;7.36;44.70
1480;BME280;732;51.698;4.886;2023-04-25T10:26:22;101765.25;;;7.97;44.72
1480;BME280;732;51.698;4.886;2023-04-25T10:28:55;101773.69;;;8.12;43.47
1480;BME280;732;51.698;4.886;2023-04-25T10:31:24;101756.13;;;8.00;43.30
1480;BME280;732;51.698;4.886;2023-04-25T10:33:53;101750.91;;;7.49;44.22
1480;BME280;732;51.698;4.886;2023-04-25T10:36:24;101739.75;;;6.95;45.72
1480;BME280;732;51.698;4.886;2023-04-25T10:38:54;101794.28;;;6.72;52.56
1480;BME280;732;51.698;4.886;2023-04-25T10:41:22;101804.03;;;6.61;55.06
1480;BME280;732;51.698;4.886;2023-04-25T10:43:59;101769.91;;;6.34;54.82
1480;BME280;732;51.698;4.886;2023-04-25T10:46:29;101785.44;;;6.50;54.86
1480;BME280;732;51.698;4.886;2023-04-25T10:48:59;101779.34;;;6.59;53.94
1480;BME280;732;51.698;4.886;2023-04-25T10:51:32;101779.41;;;6.79;52.57
1480;BME280;732;51.698;4.886;2023-04-25T10:54:22;101781.44;;;7.06;53.51
1480;BME280;732;51.698;4.886;2023-04-25T10:56:52;101798.97;;;7.49;52.13
1480;BME280;732;51.698;4.886;2023-04-25T10:59:25;101799.41;;;7.74;50.16
1480;BME280;732;51.698;4.886;2023-04-25T11:01:55;101796.16;;;7.61;49.82
1480;BME280;732;51.698;4.886;2023-04-25T11:04:28;101788.31;;;7.79;49.83
1480;BME280;732;51.698;4.886;2023-04-25T11:07:07;101799.00;;;7.69;49.53
1480;BME280;732;51.698;4.886;2023-04-25T11:09:40;101797.00;;;6.91;50.43
1480;BME280;732;51.698;4.886;2023-04-25T11:12:09;101783.53;;;7.03;50.67
1480;BME280;732;51.698;4.886;2023-04-25T11:14:39;101789.41;;;7.86;53.74
1480;BME280;732;51.698;4.886;2023-04-25T11:17:12;101769.19;;;8.51;51.97
1480;BME280;732;51.698;4.886;2023-04-25T11:19:42;101790.25;;;9.01;49.57
1480;BME280;732;51.698;4.886;2023-04-25T11:22:12;101757.78;;;8.86;45.60
1480;BME280;732;51.698;4.886;2023-04-25T11:24:40;101767.38;;;8.51;44.53
1480;BME280;732;51.698;4.886;2023-04-25T11:27:09;101789.00;;;9.23;45.77
1480;BME280;732;51.698;4.886;2023-04-25T11:29:38;101794.56;;;9.40;43.85
1480;BME280;732;51.698;4.886;2023-04-25T11:32:06;101762.75;;;8.43;43.59
1480;BME280;732;51.698;4.886;2023-04-25T11:34:35;101815.56;;;8.32;43.61
1480;BME280;732;51.698;4.886;2023-04-25T11:37:04;101816.56;;;8.21;44.76
1480;BME280;732;51.698;4.886;2023-04-25T11:39:34;101801.22;;;7.54;45.17
1480;BME280;732;51.698;4.886;2023-04-25T11:42:04;101818.72;;;7.27;47.82
1480;BME280;732;51.698;4.886;2023-04-25T11:44:40;101819.31;;;6.90;47.43
1480;BME280;732;51.698;4.886;2023-04-25T11:47:08;101809.66;;;6.99;48.68
1480;BME280;732;51.698;4.886;2023-04-25T11:49:36;101835.63;;;7.47;48.12
1480;BME280;732;51.698;4.886;2023-04-25T11:52:06;101807.91;;;7.19;47.16
1480;BME280;732;51.698;4.886;2023-04-25T11:54:37;101800.81;;;6.98;47.29
1480;BME280;732;51.698;4.886;2023-04-25T11:57:05;101826.53;;;6.99;48.64
1480;BME280;732;51.698;4.886;2023-04-25T11:59:34;101802.88;;;7.36;47.72
1480;BME280;732;51.698;4.886;2023-04-25T12:02:02;101821.63;;;7.94;47.19
1480;BME280;732;51.698;4.886;2023-04-25T12:04:30;101792.47;;;8.30;44.49
1480;BME280;732;51.698;4.886;2023-04-25T12:07:01;101802.19;;;8.41;43.80
1480;BME280;732;51.698;4.886;2023-04-25T12:09:31;101784.91;;;8.16;42.33
1480;BME280;732;51.698;4.886;2023-04-25T12:12:02;101824.00;;;8.37;44.12
1480;BME280;732;51.698;4.886;2023-04-25T12:14:32;101802.72;;;8.55;43.96
1480;BME280;732;51.698;4.886;2023-04-25T12:17:04;101792.28;;;8.52;42.74
1480;BME280;732;51.698;4.886;2023-04-25T12:19:37;101819.88;;;8.52;43.94
1480;BME280;732;51.698;4.886;2023-04-25T12:22:20;101804.91;;;8.12;45.60
1480;BME280;732;51.698;4.886;2023-04-25T12:24:49;101817.28;;;8.03;46.46
1480;BME280;732;51.698;4.886;2023-04-25T12:27:21;101812.63;;;7.76;43.73
1480;BME280;732;51.698;4.886;2023-04-25T12:29:54;101817.38;;;7.43;44.69
1480;BME280;732;51.698;4.886;2023-04-25T12:32:23;101846.78;;;7.53;45.38
1480;BME280;732;51.698;4.886;2023-04-25T12:34:52;101848.59;;;7.62;45.68
1480;BME280;732;51.698;4.886;2023-04-25T12:37:20;101841.84;;;7.58;45.55
1480;BME280;732;51.698;4.886;2023-04-25T12:39:48;101843.22;;;7.52;46.79
1480;BME280;732;51.698;4.886;2023-04-25T12:42:16;101850.41;;;7.52;46.07
1480;BME280;732;51.698;4.886;2023-04-25T12:44:46;101848.44;;;7.63;44.74
1480;BME280;732;51.698;4.886;2023-04-25T12:47:14;101823.38;;;7.35;44.45
1480;BME280;732;51.698;4.886;2023-04-25T12:49:42;101821.00;;;7.32;44.44
1480;BME280;732;51.698;4.886;2023-04-25T12:52:11;101858.72;;;7.68;45.62
1480;BME280;732;51.698;4.886;2023-04-25T12:54:39;101851.53;;;7.69;44.33
1480;BME280;732;51.698;4.886;2023-04-25T12:57:07;101853.78;;;7.54;42.94
1480;BME280;732;51.698;4.886;2023-04-25T12:59:35;101846.78;;;7.72;45.74
1480;BME280;732;51.698;4.886;2023-04-25T13:02:05;101820.31;;;7.49;43.75
1480;BME280;732;51.698;4.886;2023-04-25T13:04:33;101845.91;;;7.52;44.18
1480;BME280;732;51.698;4.886;2023-04-25T13:07:01;101839.94;;;7.99;42.69
1480;BME280;732;51.698;4.886;2023-04-25T13:09:30;101843.94;;;8.52;43.45
1480;BME280;732;51.698;4.886;2023-04-25T13:11:58;101832.66;;;8.58;42.38
1480;BME280;732;51.698;4.886;2023-04-25T13:14:26;101842.97;;;8.43;41.95
1480;BME280;732;51.698;4.886;2023-04-25T13:16:55;101830.09;;;8.09;43.62
1480;BME280;732;51.698;4.886;2023-04-25T13:19:24;101846.69;;;8.03;44.52
1480;BME280;732;51.698;4.886;2023-04-25T13:21:53;101844.81;;;7.64;40.93
1480;BME280;732;51.698;4.886;2023-04-25T13:24:21;101851.78;;;7.46;42.09
1480;BME280;732;51.698;4.886;2023-04-25T13:26:51;101843.53;;;7.69;42.68
1480;BME280;732;51.698;4.886;2023-04-25T13:29:19;101839.78;;;8.20;41.73
1480;BME280;732;51.698;4.886;2023-04-25T13:31:47;101793.50;;;7.90;40.32
1480;BME280;732;51.698;4.886;2023-04-25T13:34:15;101851.06;;;8.04;40.94
1480;BME280;732;51.698;4.886;2023-04-25T13:36:45;101849.75;;;7.89;42.19
1480;BME280;732;51.698;4.886;2023-04-25T13:39:13;101857.72;;;7.59;43.36
1480;BME280;732;51.698;4.886;2023-04-25T13:41:41;101841.31;;;7.93;43.79
1480;BME280;732;51.698;4.886;2023-04-25T13:44:10;101862.53;;;7.65;43.63
1480;BME280;732;51.698;4.886;2023-04-25T13:46:38;101830.19;;;7.49;42.54
1480;BME280;732;51.698;4.886;2023-04-25T13:49:13;101869.56;;;7.86;40.02
1480;BME280;732;51.698;4.886;2023-04-25T13:51:42;101861.69;;;7.75;41.94
1480;BME280;732;51.698;4.886;2023-04-25T13:54:11;101861.69;;;7.75;43.26
1480;BME280;732;51.698;4.886;2023-04-25T13:56:40;101863.53;;;7.74;41.84
1480;BME280;732;51.698;4.886;2023-04-25T13:59:09;101838.34;;;7.77;41.79
1480;BME280;732;51.698;4.886;2023-04-25T14:01:38;101860.47;;;8.08;41.32